createdAt,value
2019-04-20T00:00:14.516Z,66.7
2019-04-20T00:01:03.566Z,66.9
2019-04-20T00:01:56.984Z,66.9
2019-04-20T00:02:48.390Z,67
2019-04-20T00:03:37.906Z,67.1
2019-04-20T00:04:28.637Z,67.1
2019-04-20T00:05:14.846Z,67.1
2019-04-20T00:06:03.582Z,67.2
2019-04-20T00:06:54.770Z,67.4
2019-04-20T00:07:43.825Z,67.4
2019-04-20T00:08:36.446Z,67.3
2019-04-20T00:09:26.433Z,67.3
2019-04-20T00:10:18.281Z,67.5
2019-04-20T00:11:09.596Z,67.4
2019-04-20T00:12:03.707Z,67.4
2019-04-20T00:12:58.108Z,67.4
2019-04-20T00:13:44.255Z,67.5
2019-04-20T00:14:27.599Z,67.6
2019-04-20T00:15:13.587Z,67.7
2019-04-20T00:16:04.094Z,67.8
2019-04-20T00:16:54.480Z,67.9
2019-04-20T00:17:48.519Z,68
2019-04-20T00:18:41.054Z,67.8
2019-04-20T00:19:31.797Z,67.7
2019-04-20T00:20:20.412Z,67.8
2019-04-20T00:21:08.523Z,67.9
2019-04-20T00:22:00.210Z,68
2019-04-20T00:22:47.597Z,67.9
2019-04-20T00:23:40.375Z,68
2019-04-20T00:24:30.934Z,68
2019-04-20T00:25:20.150Z,68.1
2019-04-20T00:26:14.569Z,68.2
2019-04-20T00:27:13.289Z,68.3
2019-04-20T00:28:04.207Z,68.4
2019-04-20T00:28:55.717Z,68.3
2019-04-20T00:30:31.288Z,68.5
2019-04-20T00:31:23.137Z,68.5
2019-04-20T00:32:05.930Z,68.7
2019-04-20T00:32:55.412Z,68.7
2019-04-20T00:33:46.764Z,68.7
2019-04-20T00:34:30.396Z,68.7
2019-04-20T00:35:16.867Z,68.6
2019-04-20T00:36:07.197Z,68.7
2019-04-20T00:36:56.241Z,68.6
2019-04-20T00:37:46.674Z,68.6
2019-04-20T00:38:42.466Z,68.7
2019-04-20T00:39:26.078Z,68.6
2019-04-20T00:40:17.085Z,68.6
2019-04-20T00:41:10.100Z,68.6
2019-04-20T00:42:02.258Z,68.5
2019-04-20T00:42:51.738Z,68.5
2019-04-20T00:43:38.544Z,68.5
2019-04-20T00:44:30.262Z,68.6
2019-04-20T00:45:21.675Z,68.6
2019-04-20T00:46:13.719Z,68.7
2019-04-20T00:47:08.320Z,68.9
2019-04-20T00:47:54.138Z,69
2019-04-20T00:48:44.997Z,69
2019-04-20T00:49:38.644Z,69
2019-04-20T00:50:34.034Z,69.1
2019-04-20T00:51:23.721Z,69.1
2019-04-20T00:52:23.600Z,69.1
2019-04-20T00:52:58.933Z,69.2
2019-04-20T00:53:41.268Z,69.2
2019-04-20T00:54:26.398Z,69.2
2019-04-20T00:55:16.986Z,69.2
2019-04-20T00:56:07.223Z,69.3
2019-04-20T00:57:09.179Z,69.4
2019-04-20T00:57:51.736Z,69.4
2019-04-20T00:58:48.960Z,69.4
2019-04-20T00:59:39.233Z,69.4
2019-04-20T01:00:30.898Z,69.3
2019-04-20T01:01:24.506Z,69.5
2019-04-20T01:02:12.460Z,69.6
2019-04-20T01:02:58.760Z,69.5
2019-04-20T01:03:49.314Z,69.4
2019-04-20T01:04:47.381Z,69.6
2019-04-20T01:05:27.450Z,69.5
2019-04-20T01:06:21.975Z,69.6
2019-04-20T01:07:08.125Z,69.8
2019-04-20T01:07:51.925Z,69.9
2019-04-20T01:08:36.107Z,69.8
2019-04-20T01:09:26.474Z,70
2019-04-20T01:10:17.275Z,70.1
2019-04-20T01:11:06.155Z,70
2019-04-20T01:11:56.578Z,70.1
2019-04-20T01:12:47.460Z,70.1
2019-04-20T01:14:30.781Z,70.1
2019-04-20T01:15:24.279Z,70.3
2019-04-20T01:16:18.389Z,70.1
2019-04-20T01:17:00.401Z,70.1
2019-04-20T01:17:46.328Z,70.2
2019-04-20T01:18:36.338Z,70.2
2019-04-20T01:19:26.323Z,70.3
2019-04-20T01:20:16.317Z,70.3
2019-04-20T01:21:12.787Z,70.4
2019-04-20T01:22:02.222Z,70.6
2019-04-20T01:22:54.482Z,70.4
2019-04-20T01:23:42.796Z,70.6
2019-04-20T01:24:31.242Z,70.4
2019-04-20T01:25:21.725Z,70.4
2019-04-20T01:26:11.395Z,70.4
2019-04-20T01:27:00.696Z,70.2
2019-04-20T01:28:04.205Z,70.3
2019-04-20T01:28:50.978Z,70.3
2019-04-20T01:29:35.476Z,70.5
2019-04-20T01:30:24.565Z,70.5
2019-04-20T01:31:14.576Z,70.7
2019-04-20T01:32:10.306Z,70.7
2019-04-20T01:32:59.541Z,70.8
2019-04-20T01:33:45.973Z,70.9
2019-04-20T01:34:38.839Z,71
2019-04-20T01:35:35.432Z,71.1
2019-04-20T01:36:25.253Z,71.1
2019-04-20T01:37:12.974Z,71
2019-04-20T01:38:06.664Z,71.1
2019-04-20T01:38:51.150Z,71.2
2019-04-20T01:39:34.199Z,71.2
2019-04-20T01:40:16.925Z,71.2
2019-04-20T01:41:07.445Z,71.1
2019-04-20T01:41:57.847Z,71
2019-04-20T01:42:46.721Z,71.2
2019-04-20T01:43:37.435Z,71.1
2019-04-20T01:44:33.120Z,71.1
2019-04-20T01:45:22.313Z,71.1
2019-04-20T01:46:11.778Z,71.2
2019-04-20T01:47:00.002Z,71.2
2019-04-20T01:47:51.245Z,71.3
2019-04-20T01:48:38.075Z,71.3
2019-04-20T01:49:31.623Z,71.4
2019-04-20T01:50:22.468Z,71.3
2019-04-20T01:51:11.706Z,71.3
2019-04-20T01:52:06.978Z,71.4
2019-04-20T01:52:57.650Z,71.4
2019-04-20T01:53:50.182Z,71.4
2019-04-20T01:54:45.156Z,71.4
2019-04-20T01:55:32.759Z,71.5
2019-04-20T01:56:21.595Z,71.6
2019-04-20T01:57:04.576Z,71.7
2019-04-20T01:58:04.715Z,71.7
2019-04-20T01:58:51.923Z,71.9
2019-04-20T01:59:34.346Z,71.9
2019-04-20T02:00:23.169Z,71.8
2019-04-20T02:01:13.408Z,71.8
2019-04-20T02:02:02.975Z,71.9
2019-04-20T02:02:52.006Z,71.9
2019-04-20T02:03:41.677Z,71.9
2019-04-20T02:04:30.698Z,71.9
2019-04-20T02:05:22.731Z,71.8
2019-04-20T02:06:11.406Z,71.9
2019-04-20T02:06:59.649Z,71.8
2019-04-20T02:07:49.264Z,71.9
2019-04-20T02:08:36.332Z,71.9
2019-04-20T02:09:29.008Z,72
2019-04-20T02:10:18.222Z,72
2019-04-20T02:11:08.032Z,71.9
2019-04-20T02:12:04.715Z,71.9
2019-04-20T02:12:50.230Z,72
2019-04-20T02:13:44.285Z,72
2019-04-20T02:14:34.114Z,72
2019-04-20T02:15:22.877Z,72
2019-04-20T02:16:15.662Z,72.2
2019-04-20T02:17:04.134Z,72.3
2019-04-20T02:17:59.252Z,72.3
2019-04-20T02:18:48.045Z,72.5
2019-04-20T02:19:37.576Z,72.4
2019-04-20T02:20:37.297Z,72.4
2019-04-20T02:21:23.162Z,72.4
2019-04-20T02:22:09.578Z,72.4
2019-04-20T02:22:58.719Z,72.4
2019-04-20T02:23:46.138Z,72.4
2019-04-20T02:24:27.797Z,72.5
2019-04-20T02:25:16.382Z,72.5
2019-04-20T02:26:07.072Z,72.5
2019-04-20T02:26:57.815Z,72.6
2019-04-20T02:27:51.670Z,72.5
2019-04-20T02:29:00.367Z,72.5
2019-04-20T02:29:44.140Z,72.5
2019-04-20T02:30:55.093Z,72.5
2019-04-20T02:32:35.741Z,72.7
2019-04-20T02:33:25.639Z,72.7
2019-04-20T02:34:03.295Z,72.7
2019-04-20T02:34:47.493Z,72.8
2019-04-20T02:35:52.591Z,72.9
2019-04-20T02:36:57.688Z,72.9
2019-04-20T02:38:21.394Z,72.9
2019-04-20T02:39:20.783Z,73
2019-04-20T02:39:59.681Z,73.1
2019-04-20T02:40:50.152Z,73.2
2019-04-20T02:41:43.809Z,73.3
2019-04-20T02:42:33.738Z,73.4
2019-04-20T02:43:05.201Z,73.4
2019-04-20T02:44:21.178Z,73.4
2019-04-20T02:45:17.179Z,73.3
2019-04-20T02:45:43.751Z,73.3
2019-04-20T02:46:40.613Z,73.4
2019-04-20T02:47:29.943Z,73.3
2019-04-20T02:48:13.232Z,73.3
2019-04-20T02:49:19.244Z,73.3
2019-04-20T02:49:56.259Z,73.2
2019-04-20T02:50:49.266Z,73.2
2019-04-20T02:51:40.688Z,73.2
2019-04-20T02:52:20.729Z,73.2
2019-04-20T02:54:14.777Z,73.2
2019-04-20T02:55:00.139Z,73.4
2019-04-20T02:55:47.434Z,73.3
2019-04-20T02:56:38.926Z,73.4
2019-04-20T02:57:30.300Z,73.5
2019-04-20T02:58:14.688Z,73.6
2019-04-20T03:00:05.138Z,73.7
2019-04-20T03:00:37.841Z,73.7
2019-04-20T03:01:26.541Z,73.9
2019-04-20T03:02:14.590Z,73.8
2019-04-20T03:02:59.481Z,73.8
2019-04-20T03:03:44.860Z,73.9
2019-04-20T03:04:36.942Z,73.8
2019-04-20T03:05:29.196Z,73.8
2019-04-20T03:06:19.378Z,73.9
2019-04-20T03:07:11.445Z,73.8
2019-04-20T03:08:02.093Z,73.9
2019-04-20T03:08:56.156Z,73.8
2019-04-20T03:09:43.235Z,73.8
2019-04-20T03:10:45.940Z,73.8
2019-04-20T03:11:29.198Z,73.9
2019-04-20T03:12:23.219Z,74
2019-04-20T03:13:07.781Z,74
2019-04-20T03:13:57.681Z,74
2019-04-20T03:14:42.173Z,74
2019-04-20T03:15:37.356Z,74.1
2019-04-20T03:16:24.034Z,74.1
2019-04-20T03:17:20.111Z,74
2019-04-20T03:18:08.678Z,74.1
2019-04-20T03:18:53.222Z,74.2
2019-04-20T03:19:40.729Z,74.2
2019-04-20T03:20:41.538Z,74.1
2019-04-20T03:21:31.266Z,74.2
2019-04-20T03:22:20.867Z,74.2
2019-04-20T03:23:10.066Z,74.2
2019-04-20T03:24:05.301Z,74.3
2019-04-20T03:24:48.403Z,74.2
2019-04-20T03:25:35.583Z,74.2
2019-04-20T03:26:27.334Z,74.1
2019-04-20T03:27:15.636Z,74.1
2019-04-20T03:28:53.715Z,74
2019-04-20T03:29:46.760Z,73.9
2019-04-20T03:31:19.976Z,74
2019-04-20T03:32:57.183Z,74
2019-04-20T03:35:27.618Z,74
2019-04-20T03:36:33.372Z,74.1
2019-04-20T03:37:19.171Z,74.2
2019-04-20T03:38:57.153Z,74.1
2019-04-20T03:39:40.279Z,74.1
2019-04-20T03:40:29.139Z,74.1
2019-04-20T03:41:17.386Z,74
2019-04-20T03:41:58.764Z,74.2
2019-04-20T03:42:46.630Z,74.2
2019-04-20T03:43:37.052Z,74.2
2019-04-20T03:44:30.648Z,74.3
2019-04-20T03:45:19.882Z,74.3
2019-04-20T03:46:10.899Z,74.3
2019-04-20T03:47:01.149Z,74.3
2019-04-20T03:47:55.772Z,74.3
2019-04-20T03:48:54.502Z,74.3
2019-04-20T03:49:47.904Z,74.3
2019-04-20T03:51:28.815Z,74.3
2019-04-20T03:52:13.009Z,74.4
2019-04-20T03:53:12.633Z,74.4
2019-04-20T03:53:54.913Z,74.4
2019-04-20T03:54:38.524Z,74.5
2019-04-20T03:55:35.310Z,74.5
2019-04-20T03:56:27.819Z,74.5
2019-04-20T03:57:20.826Z,74.4
2019-04-20T03:58:02.490Z,74.4
2019-04-20T03:58:50.144Z,74.4
2019-04-20T03:59:48.321Z,74.4
2019-04-20T04:01:35.664Z,74.3
2019-04-20T04:03:12.206Z,74.4
2019-04-20T04:03:58.282Z,74.6
2019-04-20T04:04:43.701Z,74.6
2019-04-20T04:05:30.931Z,74.8
2019-04-20T04:06:17.430Z,74.8
2019-04-20T04:07:01.062Z,74.8
2019-04-20T04:07:57.988Z,74.8
2019-04-20T04:08:44.167Z,74.8
2019-04-20T04:09:36.939Z,74.8
2019-04-20T04:10:30.083Z,74.7
2019-04-20T04:11:19.837Z,74.7
2019-04-20T04:12:08.818Z,74.7
2019-04-20T04:12:48.404Z,74.6
2019-04-20T04:13:37.708Z,74.5
2019-04-20T04:14:26.645Z,74.5
2019-04-20T04:15:16.881Z,74.4
2019-04-20T04:16:09.944Z,74.5
2019-04-20T04:16:59.606Z,74.6
2019-04-20T04:17:48.204Z,74.6
2019-04-20T04:18:40.742Z,74.7
2019-04-20T04:19:31.579Z,74.8
2019-04-20T04:20:19.639Z,74.9
2019-04-20T04:21:11.346Z,75
2019-04-20T04:22:08.501Z,75.1
2019-04-20T04:23:03.541Z,75.1
2019-04-20T04:23:54.140Z,75.2
2019-04-20T04:24:36.624Z,75.3
2019-04-20T04:25:28.423Z,75.1
2019-04-20T04:26:25.781Z,75.2
2019-04-20T04:27:08.710Z,75.3
2019-04-20T04:28:01.182Z,75.3
2019-04-20T04:28:53.100Z,75.4
2019-04-20T04:29:46.551Z,75.3
2019-04-20T04:30:25.184Z,75.3
2019-04-20T04:31:25.761Z,75.3
2019-04-20T04:32:18.536Z,75.3
2019-04-20T04:33:31.985Z,75.4
2019-04-20T04:34:07.058Z,75.3
2019-04-20T04:34:42.879Z,75.3
2019-04-20T04:36:20.626Z,75.4
2019-04-20T04:37:16.136Z,75.4
2019-04-20T04:38:05.643Z,75.3
2019-04-20T04:38:56.923Z,75.4
2019-04-20T04:39:48.312Z,75.5
2019-04-20T04:40:39.017Z,75.5
2019-04-20T04:41:26.419Z,75.5
2019-04-20T04:42:34.029Z,75.5
2019-04-20T04:43:10.016Z,75.5
2019-04-20T04:43:53.157Z,75.5
2019-04-20T04:44:39.837Z,75.7
2019-04-20T04:45:17.968Z,75.7
2019-04-20T04:46:07.887Z,75.8
2019-04-20T04:47:00.142Z,75.7
2019-04-20T04:47:47.318Z,75.7
2019-04-20T04:48:41.002Z,75.7
2019-04-20T04:49:33.281Z,75.7
2019-04-20T04:50:21.389Z,75.8
2019-04-20T04:51:13.526Z,75.9
2019-04-20T04:52:03.833Z,75.9
2019-04-20T04:52:56.388Z,75.9
2019-04-20T04:53:47.422Z,75.9
2019-04-20T04:54:37.436Z,76
2019-04-20T04:55:25.543Z,76.1
2019-04-20T04:56:11.534Z,76.1
2019-04-20T04:56:58.613Z,76
2019-04-20T04:57:47.364Z,76
2019-04-20T04:58:36.671Z,76
2019-04-20T04:59:27.528Z,76
2019-04-20T05:00:22.498Z,76.1
2019-04-20T05:01:11.591Z,76.2
2019-04-20T05:01:58.063Z,76.2
2019-04-20T05:02:53.717Z,76.3
2019-04-20T05:04:02.514Z,76.5
2019-04-20T05:04:48.132Z,76.4
2019-04-20T05:05:35.424Z,76.5
2019-04-20T05:06:21.842Z,76.3
2019-04-20T05:07:07.123Z,76.3
2019-04-20T05:07:55.466Z,76.3
2019-04-20T05:08:43.513Z,76.2
2019-04-20T05:09:27.635Z,76.1
2019-04-20T05:10:18.900Z,76.2
2019-04-20T05:11:06.892Z,76.1
2019-04-20T05:12:03.948Z,76.1
2019-04-20T05:12:48.051Z,76.2
2019-04-20T05:13:44.688Z,76.3
2019-04-20T05:14:40.431Z,76.3
2019-04-20T05:16:18.814Z,76.3
2019-04-20T05:17:11.029Z,76.3
2019-04-20T05:18:05.628Z,76.3
2019-04-20T05:18:56.395Z,76.2
2019-04-20T05:19:47.308Z,76.2
2019-04-20T05:20:33.690Z,76.1
2019-04-20T05:21:25.189Z,76.1
2019-04-20T05:22:13.422Z,76
2019-04-20T05:23:03.673Z,76.1
2019-04-20T05:23:47.475Z,76.1
2019-04-20T05:24:42.255Z,76.2
2019-04-20T05:25:30.761Z,76.3
2019-04-20T05:26:24.866Z,76.4
2019-04-20T05:27:18.887Z,76.5
2019-04-20T05:28:05.126Z,76.6
2019-04-20T05:28:45.705Z,76.6
2019-04-20T05:29:30.351Z,76.9
2019-04-20T05:30:17.993Z,77.1
2019-04-20T05:31:09.366Z,77.2
2019-04-20T05:32:03.399Z,77.3
2019-04-20T05:32:54.688Z,77.3
2019-04-20T05:34:00.857Z,77.2
2019-04-20T05:34:52.223Z,77.2
2019-04-20T05:35:30.462Z,77.3
2019-04-20T05:36:21.687Z,77.3
2019-04-20T05:37:27.041Z,76.9
2019-04-20T05:38:11.210Z,77.2
2019-04-20T05:38:54.106Z,77.3
2019-04-20T05:39:44.238Z,77.4
2019-04-20T05:40:38.155Z,77.3
2019-04-20T05:41:21.148Z,77.5
2019-04-20T05:42:17.539Z,77.4
2019-04-20T05:43:05.617Z,77.4
2019-04-20T05:43:50.460Z,77.3
2019-04-20T05:44:49.699Z,77.4
2019-04-20T05:45:28.205Z,77.3
2019-04-20T05:46:30.487Z,77.3
2019-04-20T05:47:10.651Z,77.4
2019-04-20T05:48:02.075Z,77.5
2019-04-20T05:48:56.008Z,77.8
2019-04-20T05:49:44.890Z,77.8
2019-04-20T05:50:36.158Z,78
2019-04-20T05:51:29.288Z,78.2
2019-04-20T05:52:28.757Z,78.3
2019-04-20T05:53:56.290Z,78.6
2019-04-20T05:54:50.461Z,78.7
2019-04-20T05:55:38.337Z,78.9
2019-04-20T05:56:30.327Z,79
2019-04-20T05:57:24.871Z,79
2019-04-20T05:58:08.618Z,79
2019-04-20T05:58:56.307Z,79.1
2019-04-20T05:59:55.562Z,79
2019-04-20T06:00:40.037Z,79.2
2019-04-20T06:01:31.628Z,79.3
2019-04-20T06:02:22.461Z,79.4
2019-04-20T06:03:05.383Z,79.6
2019-04-20T06:03:57.580Z,79.8
2019-04-20T06:04:59.524Z,80.1
2019-04-20T06:06:31.447Z,80.2
2019-04-20T06:07:20.816Z,80.3
2019-04-20T06:09:05.049Z,80.4
2019-04-20T06:09:46.085Z,80.6
2019-04-20T06:11:31.404Z,80.8
2019-04-20T06:12:12.686Z,80.9
2019-04-20T06:13:00.054Z,81
2019-04-20T06:13:46.932Z,81.1
2019-04-20T06:14:42.392Z,81.1
2019-04-20T06:15:38.138Z,81.1
2019-04-20T06:16:26.938Z,81.2
2019-04-20T06:17:15.564Z,81.2
2019-04-20T06:18:02.281Z,81.3
2019-04-20T06:19:06.224Z,81.5
2019-04-20T06:19:43.679Z,81.6
2019-04-20T06:20:40.928Z,81.7
2019-04-20T06:21:57.229Z,81.7
2019-04-20T06:22:25.971Z,81.8
2019-04-20T06:23:11.688Z,81.8
2019-04-20T06:24:01.656Z,81.8
2019-04-20T06:24:51.447Z,81.8
2019-04-20T06:25:43.643Z,81.6
2019-04-20T06:27:14.246Z,81.9
2019-04-20T06:28:06.177Z,81.9
2019-04-20T06:28:49.791Z,81.8
2019-04-20T06:29:45.394Z,81.7
2019-04-20T06:31:23.731Z,81.6
2019-04-20T06:32:26.954Z,81.4
2019-04-20T06:34:41.168Z,81
2019-04-20T06:35:51.448Z,80.8
2019-04-20T06:36:31.998Z,80.7
2019-04-20T06:37:15.774Z,80.6
2019-04-20T06:38:26.196Z,80.6
2019-04-20T06:39:01.649Z,80.6
2019-04-20T06:39:46.281Z,80.7
2019-04-20T06:40:53.808Z,80.8
2019-04-20T06:41:41.433Z,80.7
2019-04-20T06:42:27.519Z,80.6
2019-04-20T06:43:03.904Z,80.7
2019-04-20T06:44:00.427Z,80.5
2019-04-20T06:44:42.511Z,80.4
2019-04-20T06:45:43.645Z,80
2019-04-20T06:46:28.179Z,79.9
2019-04-20T06:47:17.464Z,79.7
2019-04-20T06:48:13.381Z,79.4
2019-04-20T06:48:58.416Z,79.1
2019-04-20T06:50:33.658Z,78.8
2019-04-20T06:51:27.468Z,78.6
2019-04-20T06:52:24.228Z,78.4
2019-04-20T06:53:52.375Z,78.3
2019-04-20T06:54:48.130Z,77.8
2019-04-20T06:55:42.629Z,77.6
2019-04-20T06:56:28.872Z,77.4
2019-04-20T06:57:17.002Z,77.2
2019-04-20T06:58:09.328Z,77.1
2019-04-20T06:59:03.513Z,76.8
2019-04-20T06:59:45.684Z,76.8
2019-04-20T07:00:41.687Z,76.5
2019-04-20T07:01:24.632Z,76
2019-04-20T07:02:21.649Z,75.6
2019-04-20T07:04:10.599Z,74.9
2019-04-20T07:04:59.183Z,75
2019-04-20T07:05:38.885Z,74.8
2019-04-20T07:06:43.311Z,74.5
2019-04-20T07:07:18.276Z,74.4
2019-04-20T07:08:20.249Z,74.4
2019-04-20T07:09:05.978Z,73.8
2019-04-20T07:10:43.681Z,72.5
2019-04-20T07:11:27.861Z,72
2019-04-20T07:12:16.619Z,71.7
2019-04-20T07:13:02.539Z,71
2019-04-20T07:13:46.725Z,70.9
2019-04-20T07:14:40.195Z,70.5
2019-04-20T07:15:33.308Z,70.6
2019-04-20T07:16:27.831Z,70.1
2019-04-20T07:17:26.550Z,69.2
2019-04-20T07:18:07.938Z,69.1
2019-04-20T07:19:00.620Z,68.8
2019-04-20T07:19:44.239Z,68.3
2019-04-20T07:20:50.009Z,67.9
2019-04-20T07:21:43.505Z,67.2
2019-04-20T07:23:21.199Z,67
2019-04-20T07:24:03.006Z,66.9
2019-04-20T07:24:56.269Z,65.9
2019-04-20T07:25:42.078Z,65.5
2019-04-20T07:26:28.906Z,65.5
2019-04-20T07:27:11.958Z,65
2019-04-20T07:28:10.899Z,64.6
2019-04-20T07:28:58.654Z,64.5
2019-04-20T07:29:45.842Z,64.4
2019-04-20T07:30:40.193Z,63.8
2019-04-20T07:31:22.600Z,63.6
2019-04-20T07:32:12.927Z,63.1
2019-04-20T07:33:08.385Z,62.7
2019-04-20T07:33:56.613Z,62.4
2019-04-20T07:34:51.151Z,62.4
2019-04-20T07:36:32.098Z,62.4
2019-04-20T07:37:46.290Z,62.5
2019-04-20T07:38:59.539Z,62.5
2019-04-20T07:39:53.363Z,62.6
2019-04-20T07:40:38.062Z,62.4
2019-04-20T07:41:32.725Z,62.3
2019-04-20T07:42:22.518Z,62.1
2019-04-20T07:43:02.389Z,62.1
2019-04-20T07:44:02.762Z,62.2
2019-04-20T07:44:54.655Z,62.3
2019-04-20T07:45:32.888Z,62.1
2019-04-20T07:46:40.524Z,61.4
2019-04-20T07:47:21.630Z,61
2019-04-20T07:48:05.999Z,61
2019-04-20T07:49:01.009Z,60.9
2019-04-20T07:49:45.526Z,60.9
2019-04-20T07:50:28.947Z,61.1
2019-04-20T07:51:16.064Z,61
2019-04-20T07:51:59.481Z,60.4
2019-04-20T07:53:01.395Z,59
2019-04-20T07:53:59.225Z,59.1
2019-04-20T07:55:09.747Z,58.9
2019-04-20T07:55:43.759Z,58.4
2019-04-20T07:56:23.199Z,58.6
2019-04-20T07:57:14.205Z,58.3
2019-04-20T07:58:01.224Z,58
2019-04-20T07:58:45.867Z,57.6
2019-04-20T07:59:43.468Z,57.3
2019-04-20T08:00:48.025Z,57.3
2019-04-20T08:01:36.014Z,56.9
2019-04-20T08:02:23.312Z,56.7
2019-04-20T08:03:16.171Z,56.7
2019-04-20T08:04:00.934Z,56.7
2019-04-20T08:04:42.088Z,57
2019-04-20T08:05:29.319Z,56.6
2019-04-20T08:06:16.275Z,56.3
2019-04-20T08:07:03.487Z,56.3
2019-04-20T08:07:59.754Z,56
2019-04-20T08:08:52.960Z,55.3
2019-04-20T08:09:37.844Z,54.5
2019-04-20T08:10:33.519Z,54.1
2019-04-20T08:11:19.741Z,54.1
2019-04-20T08:12:25.466Z,55.5
2019-04-20T08:13:56.680Z,54.4
2019-04-20T08:14:55.185Z,53.6
2019-04-20T08:16:37.707Z,52.5
2019-04-20T08:17:36.884Z,51.4
2019-04-20T08:17:59.538Z,51
2019-04-20T08:19:09.610Z,51.2
2019-04-20T08:19:45.068Z,50.6
2019-04-20T08:20:38.319Z,50.7
2019-04-20T08:21:28.254Z,49.5
2019-04-20T08:22:19.602Z,49.5
2019-04-20T08:23:04.515Z,47.8
2019-04-20T08:23:55.253Z,46.1
2019-04-20T08:24:42.521Z,47.4
2019-04-20T08:25:30.266Z,48.2
2019-04-20T08:26:16.110Z,47.6
2019-04-20T08:27:02.651Z,46.8
2019-04-20T08:27:48.770Z,47
2019-04-20T08:28:46.235Z,48.7
2019-04-20T08:29:42.248Z,48.3
2019-04-20T08:30:33.390Z,47.2
2019-04-20T08:31:20.227Z,47
2019-04-20T08:32:17.667Z,47.1
2019-04-20T08:33:02.374Z,46.6
2019-04-20T08:34:06.104Z,46
2019-04-20T08:34:53.197Z,45.7
2019-04-20T08:35:38.761Z,46.4
2019-04-20T08:37:16.893Z,46.1
2019-04-20T08:38:36.483Z,46.8
2019-04-20T08:39:56.935Z,46.1
2019-04-20T08:40:43.373Z,45.5
2019-04-20T08:41:24.522Z,44.2
2019-04-20T08:42:16.000Z,43.2
2019-04-20T08:43:18.542Z,43.8
2019-04-20T08:44:08.063Z,44
2019-04-20T08:45:41.392Z,44.7
2019-04-20T08:46:31.945Z,44.6
2019-04-20T08:48:17.174Z,44.6
2019-04-20T08:49:55.208Z,44.6
2019-04-20T08:50:32.506Z,45.3
2019-04-20T08:51:29.110Z,45.5
2019-04-20T08:52:36.524Z,45.1
2019-04-20T08:53:20.072Z,45.3
2019-04-20T08:53:51.612Z,45.4
2019-04-20T08:54:41.287Z,44.2
2019-04-20T08:55:37.057Z,44.6
2019-04-20T08:56:21.418Z,43.7
2019-04-20T08:57:01.929Z,44.1
2019-04-20T08:57:49.717Z,44.6
2019-04-20T08:58:41.421Z,43.4
2019-04-20T08:59:32.240Z,43.9
2019-04-20T09:00:25.691Z,44.2
2019-04-20T09:01:14.066Z,43.8
2019-04-20T09:02:04.910Z,44.4
2019-04-20T09:02:55.421Z,44
2019-04-20T09:03:49.510Z,42
2019-04-20T09:04:36.990Z,42.6
2019-04-20T09:05:30.130Z,43
2019-04-20T09:06:26.099Z,42.8
2019-04-20T09:07:08.224Z,43.3
2019-04-20T09:08:02.273Z,41.9
2019-04-20T09:08:50.199Z,42.4
2019-04-20T09:09:48.814Z,43
2019-04-20T09:10:42.043Z,44.1
2019-04-20T09:11:23.835Z,44.4
2019-04-20T09:12:14.319Z,42.6
2019-04-20T09:13:02.109Z,42.8
2019-04-20T09:13:45.948Z,42.8
2019-04-20T09:14:30.251Z,42.8
2019-04-20T09:15:21.084Z,42.7
2019-04-20T09:16:10.944Z,42
2019-04-20T09:17:05.488Z,43.2
2019-04-20T09:17:54.699Z,43.6
2019-04-20T09:18:50.058Z,43.6
2019-04-20T09:19:36.412Z,43.7
2019-04-20T09:20:31.603Z,43.4
2019-04-20T09:21:21.967Z,43.4
2019-04-20T09:22:11.971Z,43
2019-04-20T09:23:06.678Z,42.5
2019-04-20T09:23:55.927Z,41.4
2019-04-20T09:24:50.807Z,41.8
2019-04-20T09:25:53.198Z,42.3
2019-04-20T09:26:26.425Z,41.8
2019-04-20T09:27:14.051Z,41.9
2019-04-20T09:28:54.226Z,42.2
2019-04-20T09:29:40.312Z,41.3
2019-04-20T09:30:31.852Z,41.2
2019-04-20T09:31:19.739Z,41.4
2019-04-20T09:32:16.646Z,41.6
2019-04-20T09:33:08.997Z,41
2019-04-20T09:33:55.340Z,40.8
2019-04-20T09:35:36.970Z,40.9
2019-04-20T09:36:23.517Z,41.1
2019-04-20T09:37:18.749Z,41.9
2019-04-20T09:38:04.757Z,41.4
2019-04-20T09:38:56.470Z,40.7
2019-04-20T09:39:39.218Z,40.7
2019-04-20T09:40:34.799Z,40.4
2019-04-20T09:41:30.227Z,40.7
2019-04-20T09:42:01.575Z,40.9
2019-04-20T09:42:50.423Z,40.6
2019-04-20T09:43:41.070Z,41
2019-04-20T09:44:37.405Z,39.9
2019-04-20T09:45:27.305Z,40.1
2019-04-20T09:46:11.726Z,40.4
2019-04-20T09:47:03.224Z,39.9
2019-04-20T09:47:53.493Z,39.6
2019-04-20T09:48:47.323Z,40.1
2019-04-20T09:49:42.269Z,39.4
2019-04-20T09:50:37.496Z,38.8
2019-04-20T09:51:29.994Z,39.2
2019-04-20T09:52:13.145Z,38.2
2019-04-20T09:53:05.801Z,38.1
2019-04-20T09:53:50.262Z,37.9
2019-04-20T09:54:45.088Z,38.6
2019-04-20T09:55:31.059Z,39
2019-04-20T09:56:22.970Z,38.2
2019-04-20T09:57:18.994Z,36.8
2019-04-20T09:58:04.798Z,37.6
2019-04-20T09:59:00.573Z,38.2
2019-04-20T09:59:49.410Z,38.1
2019-04-20T10:00:36.826Z,37.7
2019-04-20T10:01:22.555Z,37.7
2019-04-20T10:02:07.617Z,37.6
2019-04-20T10:02:50.819Z,37.7
2019-04-20T10:03:40.835Z,36.2
2019-04-20T10:04:31.312Z,37.1
2019-04-20T10:05:20.453Z,37.1
2019-04-20T10:06:11.572Z,37.1
2019-04-20T10:07:06.587Z,37.4
2019-04-20T10:07:55.616Z,37.4
2019-04-20T10:08:49.097Z,36.8
2019-04-20T10:09:34.309Z,36.8
2019-04-20T10:10:28.659Z,37.2
2019-04-20T10:11:11.669Z,37.1
2019-04-20T10:12:01.641Z,36.5
2019-04-20T10:12:50.402Z,35.4
2019-04-20T10:13:40.515Z,35.2
2019-04-20T10:14:30.963Z,35.6
2019-04-20T10:15:23.353Z,34.9
2019-04-20T10:16:11.314Z,35.4
2019-04-20T10:17:01.996Z,35.5
2019-04-20T10:17:51.900Z,36.3
2019-04-20T10:18:45.413Z,36.1
2019-04-20T10:19:33.962Z,36.2
2019-04-20T10:20:27.284Z,36.6
2019-04-20T10:21:11.744Z,35.8
2019-04-20T10:22:02.494Z,35.6
2019-04-20T10:22:54.335Z,35.7
2019-04-20T10:23:42.532Z,34.6
2019-04-20T10:24:32.762Z,35.7
2019-04-20T10:25:22.544Z,36
2019-04-20T10:26:12.250Z,33.7
2019-04-20T10:27:02.985Z,34.6
2019-04-20T10:27:51.648Z,34.7
2019-04-20T10:28:41.768Z,34.5
2019-04-20T10:29:31.848Z,34.7
2019-04-20T10:30:22.639Z,34.9
2019-04-20T10:31:12.722Z,34.6
2019-04-20T10:32:06.684Z,34.6
2019-04-20T10:32:54.032Z,34.3
2019-04-20T10:33:41.776Z,34.1
2019-04-20T10:34:32.709Z,34.4
2019-04-20T10:35:21.581Z,35.1
2019-04-20T10:36:11.893Z,35.2
2019-04-20T10:37:01.698Z,34.2
2019-04-20T10:37:51.646Z,33.6
2019-04-20T10:38:42.356Z,34
2019-04-20T10:39:31.583Z,33.5
2019-04-20T10:40:37.497Z,33.8
2019-04-20T10:41:18.325Z,34.2
2019-04-20T10:42:04.130Z,34.3
2019-04-20T10:42:53.101Z,32.8
2019-04-20T10:43:42.774Z,33.6
2019-04-20T10:44:32.674Z,33.9
2019-04-20T10:45:21.581Z,32.9
2019-04-20T10:46:12.845Z,32.3
2019-04-20T10:47:02.871Z,32.1
2019-04-20T10:47:53.266Z,32.7
2019-04-20T10:48:47.330Z,33.3
2019-04-20T10:49:31.718Z,33.2
2019-04-20T10:50:22.903Z,33.8
2019-04-20T10:51:12.785Z,34.8
2019-04-20T10:52:01.923Z,34.7
2019-04-20T10:52:53.978Z,35.3
2019-04-20T10:53:42.350Z,34.2
2019-04-20T10:54:32.319Z,34
2019-04-20T10:55:21.541Z,34.3
2019-04-20T10:56:11.709Z,34.4
2019-04-20T10:57:01.593Z,34.8
2019-04-20T10:57:51.547Z,35.3
2019-04-20T10:58:41.524Z,34.8
2019-04-20T10:59:31.871Z,34.4
2019-04-20T11:00:21.651Z,34
2019-04-20T11:01:11.630Z,33.6
2019-04-20T11:02:01.612Z,33.8
2019-04-20T11:02:52.476Z,33.5
2019-04-20T11:03:42.714Z,32.9
2019-04-20T11:04:32.688Z,32.7
2019-04-20T11:05:24.927Z,32
2019-04-20T11:06:11.546Z,31.9
2019-04-20T11:07:02.915Z,32.8
2019-04-20T11:07:52.741Z,33
2019-04-20T11:08:42.710Z,32.9
2019-04-20T11:09:32.710Z,30.7
2019-04-20T11:10:28.499Z,29.8
2019-04-20T11:11:20.006Z,29.7
2019-04-20T11:12:04.073Z,29.6
2019-04-20T11:12:52.761Z,30.5
2019-04-20T11:13:43.420Z,29.5
2019-04-20T11:14:36.437Z,29.4
2019-04-20T11:15:24.136Z,30.3
2019-04-20T11:16:12.981Z,30.5
2019-04-20T11:17:02.975Z,29.6
2019-04-20T11:17:53.268Z,29.1
2019-04-20T11:18:43.264Z,28.4
2019-04-20T11:19:33.583Z,28.7
2019-04-20T11:20:23.436Z,29.4
2019-04-20T11:21:13.310Z,28.5
2019-04-20T11:22:04.181Z,27.2
2019-04-20T11:22:53.026Z,27.3
2019-04-20T11:23:44.473Z,27.3
2019-04-20T11:24:34.418Z,27.6
2019-04-20T11:25:24.253Z,27.4
2019-04-20T11:26:14.022Z,27.6
2019-04-20T11:27:04.459Z,28.2
2019-04-20T11:27:54.352Z,26.9
2019-04-20T11:28:44.141Z,27.3
2019-04-20T11:29:33.906Z,28.7
2019-04-20T11:30:23.282Z,29.1
2019-04-20T11:31:14.401Z,27.9
2019-04-20T11:32:03.254Z,27.1
2019-04-20T11:32:53.950Z,27.2
2019-04-20T11:33:43.381Z,27.6
2019-04-20T11:34:38.127Z,28.6
2019-04-20T11:35:30.193Z,28.8
2019-04-20T11:36:13.263Z,28.6
2019-04-20T11:37:03.453Z,26
2019-04-20T11:37:53.326Z,26.3
2019-04-20T11:38:44.616Z,25.8
2019-04-20T11:39:33.262Z,24.1
2019-04-20T11:40:23.374Z,25
2019-04-20T11:41:18.812Z,26.2
2019-04-20T11:42:03.622Z,25.6
2019-04-20T11:42:53.431Z,24.5
2019-04-20T11:43:44.022Z,23.2